Skip to main content

Table 2 Shows recording mean temperature, radiation and drying humidity of Woreta for selected day in the month

From: Potential assessment and experimental analysis of solar vegetable dryer: in case of northern Ethiopia

No. Month Time of recording (temperature in  °C) Date
3:00 4:00 5:00 6:00 7:00 8:00 9:00 10:00  
1 March 19 20 28 31 29 29 31 29 16/03/2016
2 20 22 30 32 31 31 30.8 30 18/03/2016
3 19 21.8 27.8 29 32 31.8 30.3 30 20/03/2016
4 19 22 28 40 41 33.5 34.3 32.9 22/03/2016
5 20 24 29.8 38.9 40 37.3 37 34.3 28/03/2016
6 17 23.8 29 34.5 37.5 36.7 33.8 32 31/03/2016
No. Month Time recording (horizontal radiation in W/m2) Date
3:00 4:00 5:00 6:00 7:00 8:00 9:00 10:00
1 March 589 679 923 1075 1145 1105 1065 933 16/03/2016
2 584 681 923 1070 1137 1103 1053 927 18/03/2016
3 558 668 913 975 1035 1053 1013 922 20/03/2016
4 547 558 798 1205 1107 1015 989 763 22/03/2016
5 543 687 914 953 999 1102 1087 921 28/03/2016
6 568 698 912 973 997 1026 1031 957 31/03/2016
No. Month Time recording (dry humidity in %) Date
3:00 4:00 5:00 6:00 7:00 8:00 9:00 10:00
1 March 36 35.3 31 29 29.3 31 31.5 32 16/03/2016
2 31 30.7 29 28.3 28.1 27.4 28 27 18/03/2016
3 30 29.5 23.5 22.3 21.8 19.5 21.8 22 20/03/2016
4 23 21 20.8 18 17.8 17 21 21.8 22/03/2016
5 24.1 24 23 13.5 14.5 14.5 17.5 18 28/03/2016
6 23.2 22.8 22.1 14.5 14 14.1 18.3 18.5 31/03/2016
No. Month Time recording (temperature in  °C) Date
April 3:00 4:00 5:00 6:00 7:00 8:00 9:00 10:00
1 23.4 31.1 33.2 34.8 35.9 35.9 33.3 31.3 8/04/2016
2 23.4 25.1 32 32.3 31.8 33.8 29.9 30.1 11/04/2016
3 22.3 24.8 31.2 32.1 32.8 33.1 30.9 29.5 16/04/2016
4 25.4 28.9 32.3 33.5 32.3 31.9 31.1 29.9 20/04/2016
5 25 30.1 38.2 38.8 37.3 34.3 33.9 32.9 25/04/2016
6 27.6 29.4 32.8 33.8 34.9 33.9 34.5 34.6 27/04/2016
No. Month Time recording (horizontal radiation in W/m2) Date
April 3:00 4:00 5:00 6:00 7:00 8:00 9:00 10:00
1 863 1120 1165 1175 1107 1062 873 765 8/04/2016
2 793 923 1001 1056 1108 990 866 792 11/04/2016
3 798 993 1023 1078 1124 1095 998 812 16/04/2016
4 509 943 1021 1107 1074 1030 894 794 20/04/2016
5 659 822 1004 1106 1098 1023 998 621 25/04/2016
6 579 820 931 1045 1105 1062 1014 943 27/04/2016
No. Month Time recording (dry humidity in %) Date
April 3:00 4:00 5:00 6:00 7:00 8:00 9:00 10:00
1 18.5 17.5 16.5 16.3 17.9 12.9 12.3 13.3 8/04/2016
2   23.1 22.9 24 26.5 31.8 31.1 28 39.1 11/04/2016
3   22.3 23.8 25.1 24.3 27.9 28.4 30.1 34.7 16/04/2016
4   32.6 23.5 19.1 17.6 18.9 19.8 20.1 21.3 20/04/2016
5   30.1 23.6 24.3 21.7 22.7 23.2 24.8 25.5 25/04/2016
6   43.9 38.4 33.3 31.8 29.3 31.3 32.8 33.2 27/04/2016